Aérodrome :
LOGIN :

S'inscrire | Disclaimer

   EN    FR    IT 

 










Légende :    VFR   VFR Marginal   IFR   IFR Intensif   IFR Très Intensif
Visi : 
Plafond : 
>= 8 km
>= 3000ft
5 à 8 km
1000 à 3000 ft
1500m à 5 km
500 à 1000 ft
800 à 1500m
200 à 500 ft
< 800m
< 200 ft
Symboles :   Orages  Brouillard  Fortes neiges  Fortes précipitations  Vent > 20 kt
SIGMETs :   Divers  Orages  Givrage  Turbulence  Onde Orograph.  Cendres Volcan.







- Altitude de l'aérodrome : 160 ft
- Code IATA : LRT
- Voir les cartes d'approche


LFRH - Lorient Lann Bihoue

DERNIER METAR :
  • 241700Z AUTO 27005KT 9999 FEW038 24/16 Q1022 NOSIG

METARs EXPIRÉS :
  • 241630Z AUTO 25003KT 200V320 9999 FEW038 25/16 Q1022 NOSIG
  • 241600Z AUTO 26004KT 120V290 9999 SCT039 26/16 Q1022 NOSIG
  • 241530Z AUTO 08005KT 020V180 9999 FEW039 25/16 Q1023 BECMG 25010KT
  • 241500Z AUTO 06005KT 010V120 9999 BKN039 24/16 Q1023 BECMG 25010KT
  • 241430Z AUTO 05006KT 350V150 9999 FEW038 25/16 Q1023 BECMG 25010KT

TAF AMD TAF LFRH
Valide du 24 à 12h jusqu'au 25 à 12h UTC


241130Z 2412/2512 08008KT 9999 FEW027
BECMG 2412/2414 16012KT BKN030
BECMG 2414/2415 25010KT
BECMG 2419/2421 05012KT
TEMPO 2509/2512 09010G20KT
Pas de NOTAMs connus pour ce terrain.



MET'MAP, la Météo Aéronautique d'un coup d'oeil ! - Copyright ORBIFLY Décembre 2007 - Disclaimer

ORBIFLY MET'MAP TEAM :

Programmation & Développement : Alexandra Zaïnal
Conception & Développement : Baudouin d'Aumeries
Co-Programmation & Développement : Marc-Olivier Méhu
Soutien technique & logistique : Manuel Goepfert

Contact : metmap@orbifly.com




SOURCES & CREDITS :

   NOAA